sensor_id;sensor_type;location;lat;lon;timestamp;P1;durP1;ratioP1;P2;durP2;ratioP2
54947;SDS011;41113;41.882;12.530;2023-08-12T00:01:48;9.75;;;3.83;;
54947;SDS011;41113;41.882;12.530;2023-08-12T00:04:13;8.73;;;3.60;;
54947;SDS011;41113;41.882;12.530;2023-08-12T00:06:40;9.38;;;4.15;;
54947;SDS011;41113;41.882;12.530;2023-08-12T00:09:06;12.23;;;4.35;;
54947;SDS011;41113;41.882;12.530;2023-08-12T00:11:32;9.30;;;3.78;;
54947;SDS011;41113;41.882;12.530;2023-08-12T00:13:59;11.68;;;4.00;;
54947;SDS011;41113;41.882;12.530;2023-08-12T00:16:24;12.23;;;4.70;;
54947;SDS011;41113;41.882;12.530;2023-08-12T00:18:49;10.98;;;4.32;;
54947;SDS011;41113;41.882;12.530;2023-08-12T00:21:15;11.38;;;4.82;;
54947;SDS011;41113;41.882;12.530;2023-08-12T00:23:40;13.02;;;4.63;;
54947;SDS011;41113;41.882;12.530;2023-08-12T00:26:06;11.48;;;4.80;;
54947;SDS011;41113;41.882;12.530;2023-08-12T00:28:33;12.13;;;4.82;;
54947;SDS011;41113;41.882;12.530;2023-08-12T00:30:58;13.10;;;4.88;;
54947;SDS011;41113;41.882;12.530;2023-08-12T00:33:24;13.95;;;5.40;;
54947;SDS011;41113;41.882;12.530;2023-08-12T00:35:49;12.63;;;4.43;;
54947;SDS011;41113;41.882;12.530;2023-08-12T00:38:15;10.70;;;3.97;;
54947;SDS011;41113;41.882;12.530;2023-08-12T00:40:40;10.40;;;4.07;;
54947;SDS011;41113;41.882;12.530;2023-08-12T00:43:05;10.88;;;4.47;;
54947;SDS011;41113;41.882;12.530;2023-08-12T00:45:31;10.52;;;4.10;;
54947;SDS011;41113;41.882;12.530;2023-08-12T00:47:56;11.63;;;4.32;;
54947;SDS011;41113;41.882;12.530;2023-08-12T00:50:22;11.02;;;4.68;;
54947;SDS011;41113;41.882;12.530;2023-08-12T00:52:48;12.25;;;4.22;;
54947;SDS011;41113;41.882;12.530;2023-08-12T00:55:15;9.88;;;3.95;;
54947;SDS011;41113;41.882;12.530;2023-08-12T00:57:42;12.02;;;4.60;;
54947;SDS011;41113;41.882;12.530;2023-08-12T01:00:08;11.55;;;4.40;;
54947;SDS011;41113;41.882;12.530;2023-08-12T01:02:33;10.88;;;4.70;;
54947;SDS011;41113;41.882;12.530;2023-08-12T01:04:59;10.10;;;4.55;;
54947;SDS011;41113;41.882;12.530;2023-08-12T01:07:24;10.23;;;4.43;;
54947;SDS011;41113;41.882;12.530;2023-08-12T01:09:50;12.18;;;5.07;;
54947;SDS011;41113;41.882;12.530;2023-08-12T01:12:23;12.57;;;4.65;;
54947;SDS011;41113;41.882;12.530;2023-08-12T01:14:59;11.50;;;4.65;;
54947;SDS011;41113;41.882;12.530;2023-08-12T01:17:30;11.82;;;5.22;;
54947;SDS011;41113;41.882;12.530;2023-08-12T01:19:57;12.70;;;4.88;;
54947;SDS011;41113;41.882;12.530;2023-08-12T01:22:24;10.65;;;4.70;;
54947;SDS011;41113;41.882;12.530;2023-08-12T01:24:52;15.50;;;4.90;;
54947;SDS011;41113;41.882;12.530;2023-08-12T01:27:17;12.15;;;4.88;;
54947;SDS011;41113;41.882;12.530;2023-08-12T01:29:44;10.98;;;4.47;;
54947;SDS011;41113;41.882;12.530;2023-08-12T01:32:23;14.30;;;4.95;;
54947;SDS011;41113;41.882;12.530;2023-08-12T01:35:17;11.45;;;4.70;;
54947;SDS011;41113;41.882;12.530;2023-08-12T01:37:47;10.70;;;4.28;;
54947;SDS011;41113;41.882;12.530;2023-08-12T01:40:15;10.55;;;4.57;;
54947;SDS011;41113;41.882;12.530;2023-08-12T01:42:42;10.05;;;4.50;;
54947;SDS011;41113;41.882;12.530;2023-08-12T01:45:08;10.63;;;4.25;;
54947;SDS011;41113;41.882;12.530;2023-08-12T01:47:33;13.10;;;6.00;;
54947;SDS011;41113;41.882;12.530;2023-08-12T01:49:59;12.65;;;5.22;;
54947;SDS011;41113;41.882;12.530;2023-08-12T01:52:24;12.38;;;4.57;;
54947;SDS011;41113;41.882;12.530;2023-08-12T01:54:50;10.45;;;3.58;;
54947;SDS011;41113;41.882;12.530;2023-08-12T01:57:15;9.65;;;4.00;;
54947;SDS011;41113;41.882;12.530;2023-08-12T01:59:41;12.18;;;4.80;;
54947;SDS011;41113;41.882;12.530;2023-08-12T02:02:08;12.23;;;4.07;;
54947;SDS011;41113;41.882;12.530;2023-08-12T02:04:34;11.45;;;4.45;;
54947;SDS011;41113;41.882;12.530;2023-08-12T02:07:01;10.32;;;4.03;;
54947;SDS011;41113;41.882;12.530;2023-08-12T02:09:27;11.38;;;3.88;;
54947;SDS011;41113;41.882;12.530;2023-08-12T02:11:52;11.00;;;4.18;;
54947;SDS011;41113;41.882;12.530;2023-08-12T02:14:17;8.88;;;3.90;;
54947;SDS011;41113;41.882;12.530;2023-08-12T02:16:43;10.23;;;3.95;;
54947;SDS011;41113;41.882;12.530;2023-08-12T02:19:08;9.70;;;4.03;;
54947;SDS011;41113;41.882;12.530;2023-08-12T02:21:33;12.25;;;4.22;;
54947;SDS011;41113;41.882;12.530;2023-08-12T02:23:59;10.35;;;4.10;;
54947;SDS011;41113;41.882;12.530;2023-08-12T02:26:24;9.43;;;3.95;;
54947;SDS011;41113;41.882;12.530;2023-08-12T02:28:49;12.48;;;5.00;;
54947;SDS011;41113;41.882;12.530;2023-08-12T02:31:15;11.57;;;4.97;;
54947;SDS011;41113;41.882;12.530;2023-08-12T02:33:41;10.40;;;4.55;;
54947;SDS011;41113;41.882;12.530;2023-08-12T02:36:07;11.00;;;4.32;;
54947;SDS011;41113;41.882;12.530;2023-08-12T02:38:32;9.35;;;4.28;;
54947;SDS011;41113;41.882;12.530;2023-08-12T02:40:58;12.13;;;3.80;;
54947;SDS011;41113;41.882;12.530;2023-08-12T02:43:23;10.38;;;4.20;;
54947;SDS011;41113;41.882;12.530;2023-08-12T02:45:49;10.27;;;4.40;;
54947;SDS011;41113;41.882;12.530;2023-08-12T02:48:14;10.95;;;4.68;;
54947;SDS011;41113;41.882;12.530;2023-08-12T02:50:39;10.75;;;3.70;;
54947;SDS011;41113;41.882;12.530;2023-08-12T02:53:05;9.93;;;3.85;;
54947;SDS011;41113;41.882;12.530;2023-08-12T02:55:31;11.00;;;4.15;;
54947;SDS011;41113;41.882;12.530;2023-08-12T02:57:57;10.57;;;4.50;;
54947;SDS011;41113;41.882;12.530;2023-08-12T03:00:23;11.88;;;3.92;;
54947;SDS011;41113;41.882;12.530;2023-08-12T03:02:48;10.07;;;3.95;;
54947;SDS011;41113;41.882;12.530;2023-08-12T03:05:13;11.57;;;3.83;;
54947;SDS011;41113;41.882;12.530;2023-08-12T03:07:39;10.80;;;4.10;;
54947;SDS011;41113;41.882;12.530;2023-08-12T03:10:05;9.00;;;3.75;;
54947;SDS011;41113;41.882;12.530;2023-08-12T03:12:30;10.98;;;4.13;;
54947;SDS011;41113;41.882;12.530;2023-08-12T03:14:56;12.02;;;4.20;;
54947;SDS011;41113;41.882;12.530;2023-08-12T03:17:21;13.05;;;4.60;;
54947;SDS011;41113;41.882;12.530;2023-08-12T03:19:47;9.88;;;3.90;;
54947;SDS011;41113;41.882;12.530;2023-08-12T03:22:12;10.60;;;4.00;;
54947;SDS011;41113;41.882;12.530;2023-08-12T03:24:37;8.73;;;3.72;;
54947;SDS011;41113;41.882;12.530;2023-08-12T03:27:03;10.23;;;3.90;;
54947;SDS011;41113;41.882;12.530;2023-08-12T03:29:28;10.60;;;4.13;;
54947;SDS011;41113;41.882;12.530;2023-08-12T03:31:54;8.05;;;3.33;;
54947;SDS011;41113;41.882;12.530;2023-08-12T03:34:19;10.60;;;4.00;;
54947;SDS011;41113;41.882;12.530;2023-08-12T03:36:44;11.43;;;4.05;;
54947;SDS011;41113;41.882;12.530;2023-08-12T03:39:13;10.80;;;3.73;;
54947;SDS011;41113;41.882;12.530;2023-08-12T03:41:38;9.70;;;3.95;;
54947;SDS011;41113;41.882;12.530;2023-08-12T03:44:04;10.63;;;3.60;;
54947;SDS011;41113;41.882;12.530;2023-08-12T03:46:29;10.55;;;3.72;;
54947;SDS011;41113;41.882;12.530;2023-08-12T03:48:55;9.80;;;3.90;;
54947;SDS011;41113;41.882;12.530;2023-08-12T03:51:20;10.13;;;3.70;;
54947;SDS011;41113;41.882;12.530;2023-08-12T03:53:46;10.82;;;4.13;;
54947;SDS011;41113;41.882;12.530;2023-08-12T03:56:11;9.57;;;3.42;;
54947;SDS011;41113;41.882;12.530;2023-08-12T03:58:40;9.20;;;3.37;;
54947;SDS011;41113;41.882;12.530;2023-08-12T04:01:05;9.45;;;3.58;;
54947;SDS011;41113;41.882;12.530;2023-08-12T04:03:31;11.13;;;4.15;;
54947;SDS011;41113;41.882;12.530;2023-08-12T04:05:56;8.93;;;3.70;;
54947;SDS011;41113;41.882;12.530;2023-08-12T04:08:22;9.98;;;4.05;;
54947;SDS011;41113;41.882;12.530;2023-08-12T04:10:48;10.23;;;4.18;;
54947;SDS011;41113;41.882;12.530;2023-08-12T04:13:14;10.35;;;3.92;;
54947;SDS011;41113;41.882;12.530;2023-08-12T04:15:40;9.18;;;3.88;;
54947;SDS011;41113;41.882;12.530;2023-08-12T04:18:06;10.68;;;4.20;;
54947;SDS011;41113;41.882;12.530;2023-08-12T04:20:32;10.27;;;3.90;;
54947;SDS011;41113;41.882;12.530;2023-08-12T04:22:57;10.82;;;3.83;;
54947;SDS011;41113;41.882;12.530;2023-08-12T04:25:22;9.95;;;3.45;;
54947;SDS011;41113;41.882;12.530;2023-08-12T04:27:48;10.95;;;3.83;;
54947;SDS011;41113;41.882;12.530;2023-08-12T04:30:15;12.27;;;3.78;;
54947;SDS011;41113;41.882;12.530;2023-08-12T04:32:43;10.77;;;4.80;;
54947;SDS011;41113;41.882;12.530;2023-08-12T04:35:08;12.35;;;4.15;;
54947;SDS011;41113;41.882;12.530;2023-08-12T04:37:35;9.82;;;4.00;;
54947;SDS011;41113;41.882;12.530;2023-08-12T04:40:01;10.90;;;4.03;;
54947;SDS011;41113;41.882;12.530;2023-08-12T04:42:26;8.82;;;3.33;;
54947;SDS011;41113;41.882;12.530;2023-08-12T04:44:51;11.23;;;3.40;;
54947;SDS011;41113;41.882;12.530;2023-08-12T04:47:17;9.32;;;3.90;;
54947;SDS011;41113;41.882;12.530;2023-08-12T04:49:42;9.82;;;3.30;;
54947;SDS011;41113;41.882;12.530;2023-08-12T04:52:08;10.10;;;4.15;;
54947;SDS011;41113;41.882;12.530;2023-08-12T04:54:33;10.77;;;3.53;;
54947;SDS011;41113;41.882;12.530;2023-08-12T04:56:58;9.35;;;3.30;;
54947;SDS011;41113;41.882;12.530;2023-08-12T04:59:24;9.50;;;3.38;;
54947;SDS011;41113;41.882;12.530;2023-08-12T05:01:50;10.10;;;3.53;;
54947;SDS011;41113;41.882;12.530;2023-08-12T05:04:15;10.40;;;3.30;;
54947;SDS011;41113;41.882;12.530;2023-08-12T05:06:41;8.00;;;2.83;;
54947;SDS011;41113;41.882;12.530;2023-08-12T05:09:06;9.60;;;3.25;;
54947;SDS011;41113;41.882;12.530;2023-08-12T05:11:32;8.60;;;3.08;;
54947;SDS011;41113;41.882;12.530;2023-08-12T05:13:57;7.65;;;2.90;;
54947;SDS011;41113;41.882;12.530;2023-08-12T05:16:22;7.93;;;2.80;;
54947;SDS011;41113;41.882;12.530;2023-08-12T05:18:48;8.68;;;2.90;;
54947;SDS011;41113;41.882;12.530;2023-08-12T05:21:13;8.02;;;2.88;;
54947;SDS011;41113;41.882;12.530;2023-08-12T05:23:38;9.80;;;3.15;;
54947;SDS011;41113;41.882;12.530;2023-08-12T05:26:04;10.45;;;3.08;;
54947;SDS011;41113;41.882;12.530;2023-08-12T05:28:29;8.82;;;3.13;;
54947;SDS011;41113;41.882;12.530;2023-08-12T05:30:54;9.15;;;3.20;;
54947;SDS011;41113;41.882;12.530;2023-08-12T05:33:20;10.05;;;3.03;;
54947;SDS011;41113;41.882;12.530;2023-08-12T05:35:47;8.27;;;3.00;;
54947;SDS011;41113;41.882;12.530;2023-08-12T05:38:13;8.35;;;3.10;;
54947;SDS011;41113;41.882;12.530;2023-08-12T05:40:38;8.30;;;3.08;;
54947;SDS011;41113;41.882;12.530;2023-08-12T05:43:04;9.68;;;3.00;;
54947;SDS011;41113;41.882;12.530;2023-08-12T05:45:29;7.47;;;2.50;;
54947;SDS011;41113;41.882;12.530;2023-08-12T05:47:55;7.57;;;2.63;;
54947;SDS011;41113;41.882;12.530;2023-08-12T05:50:20;8.60;;;2.90;;
54947;SDS011;41113;41.882;12.530;2023-08-12T05:52:46;9.43;;;3.30;;
54947;SDS011;41113;41.882;12.530;2023-08-12T05:55:11;7.63;;;3.03;;
54947;SDS011;41113;41.882;12.530;2023-08-12T05:57:37;10.32;;;3.45;;
54947;SDS011;41113;41.882;12.530;2023-08-12T06:00:02;9.05;;;3.22;;
54947;SDS011;41113;41.882;12.530;2023-08-12T06:02:28;7.30;;;3.05;;
54947;SDS011;41113;41.882;12.530;2023-08-12T06:04:53;8.68;;;2.90;;
54947;SDS011;41113;41.882;12.530;2023-08-12T06:07:19;7.45;;;2.70;;
54947;SDS011;41113;41.882;12.530;2023-08-12T06:09:44;8.57;;;2.88;;
54947;SDS011;41113;41.882;12.530;2023-08-12T06:12:10;7.90;;;2.80;;
54947;SDS011;41113;41.882;12.530;2023-08-12T06:14:37;7.78;;;2.72;;
54947;SDS011;41113;41.882;12.530;2023-08-12T06:17:03;9.07;;;2.92;;
54947;SDS011;41113;41.882;12.530;2023-08-12T06:19:28;8.68;;;2.72;;
54947;SDS011;41113;41.882;12.530;2023-08-12T06:21:54;9.00;;;3.05;;
54947;SDS011;41113;41.882;12.530;2023-08-12T06:24:19;7.50;;;2.95;;
54947;SDS011;41113;41.882;12.530;2023-08-12T06:26:44;7.50;;;2.63;;
54947;SDS011;41113;41.882;12.530;2023-08-12T06:29:10;6.35;;;2.45;;
54947;SDS011;41113;41.882;12.530;2023-08-12T06:31:35;7.20;;;2.53;;
54947;SDS011;41113;41.882;12.530;2023-08-12T06:34:00;7.45;;;2.53;;
54947;SDS011;41113;41.882;12.530;2023-08-12T06:36:26;7.78;;;3.00;;
54947;SDS011;41113;41.882;12.530;2023-08-12T06:38:51;7.45;;;2.47;;
54947;SDS011;41113;41.882;12.530;2023-08-12T06:41:17;7.47;;;2.58;;
54947;SDS011;41113;41.882;12.530;2023-08-12T06:43:42;8.73;;;2.60;;
54947;SDS011;41113;41.882;12.530;2023-08-12T06:46:07;7.95;;;2.90;;
54947;SDS011;41113;41.882;12.530;2023-08-12T06:48:33;6.75;;;2.63;;
54947;SDS011;41113;41.882;12.530;2023-08-12T06:50:58;7.47;;;2.88;;
54947;SDS011;41113;41.882;12.530;2023-08-12T06:53:24;8.40;;;2.90;;
54947;SDS011;41113;41.882;12.530;2023-08-12T06:55:51;8.38;;;3.17;;
54947;SDS011;41113;41.882;12.530;2023-08-12T06:58:16;7.38;;;2.80;;
54947;SDS011;41113;41.882;12.530;2023-08-12T07:00:42;9.82;;;3.28;;
54947;SDS011;41113;41.882;12.530;2023-08-12T07:03:07;9.32;;;2.63;;
54947;SDS011;41113;41.882;12.530;2023-08-12T07:05:33;8.27;;;2.92;;
54947;SDS011;41113;41.882;12.530;2023-08-12T07:07:58;6.47;;;2.40;;
54947;SDS011;41113;41.882;12.530;2023-08-12T07:10:24;7.20;;;2.88;;
54947;SDS011;41113;41.882;12.530;2023-08-12T07:12:49;7.72;;;3.00;;
54947;SDS011;41113;41.882;12.530;2023-08-12T07:15:14;7.25;;;2.70;;
54947;SDS011;41113;41.882;12.530;2023-08-12T07:17:40;7.50;;;2.70;;
54947;SDS011;41113;41.882;12.530;2023-08-12T07:20:05;8.07;;;2.70;;
54947;SDS011;41113;41.882;12.530;2023-08-12T07:22:32;7.28;;;2.63;;
54947;SDS011;41113;41.882;12.530;2023-08-12T07:24:57;7.47;;;2.60;;
54947;SDS011;41113;41.882;12.530;2023-08-12T07:27:25;8.52;;;3.20;;
54947;SDS011;41113;41.882;12.530;2023-08-12T07:29:50;8.00;;;2.67;;
54947;SDS011;41113;41.882;12.530;2023-08-12T07:32:16;9.68;;;3.30;;
54947;SDS011;41113;41.882;12.530;2023-08-12T07:34:41;8.48;;;2.95;;
54947;SDS011;41113;41.882;12.530;2023-08-12T07:37:07;8.70;;;2.53;;
54947;SDS011;41113;41.882;12.530;2023-08-12T07:39:32;9.40;;;2.97;;
54947;SDS011;41113;41.882;12.530;2023-08-12T07:41:57;6.88;;;2.42;;
54947;SDS011;41113;41.882;12.530;2023-08-12T07:44:23;7.78;;;3.25;;
54947;SDS011;41113;41.882;12.530;2023-08-12T07:46:48;7.50;;;2.67;;
54947;SDS011;41113;41.882;12.530;2023-08-12T07:49:15;9.50;;;3.08;;
54947;SDS011;41113;41.882;12.530;2023-08-12T07:51:41;6.43;;;2.40;;
54947;SDS011;41113;41.882;12.530;2023-08-12T07:54:06;7.20;;;2.97;;
54947;SDS011;41113;41.882;12.530;2023-08-12T07:56:32;8.27;;;2.42;;
54947;SDS011;41113;41.882;12.530;2023-08-12T07:58:57;7.38;;;2.95;;
54947;SDS011;41113;41.882;12.530;2023-08-12T08:01:22;8.13;;;2.67;;
54947;SDS011;41113;41.882;12.530;2023-08-12T08:03:48;7.53;;;2.85;;
54947;SDS011;41113;41.882;12.530;2023-08-12T08:06:13;7.15;;;2.50;;
54947;SDS011;41113;41.882;12.530;2023-08-12T08:08:38;10.25;;;2.97;;
54947;SDS011;41113;41.882;12.530;2023-08-12T08:11:04;7.53;;;2.75;;
54947;SDS011;41113;41.882;12.530;2023-08-12T08:13:30;7.18;;;2.60;;
54947;SDS011;41113;41.882;12.530;2023-08-12T08:15:55;7.55;;;2.80;;
54947;SDS011;41113;41.882;12.530;2023-08-12T08:18:21;6.93;;;2.47;;
54947;SDS011;41113;41.882;12.530;2023-08-12T08:20:46;7.03;;;2.60;;
54947;SDS011;41113;41.882;12.530;2023-08-12T08:23:12;7.97;;;3.30;;
54947;SDS011;41113;41.882;12.530;2023-08-12T08:25:37;7.07;;;2.67;;
54947;SDS011;41113;41.882;12.530;2023-08-12T08:28:02;8.15;;;3.05;;
54947;SDS011;41113;41.882;12.530;2023-08-12T08:30:28;9.57;;;2.95;;
54947;SDS011;41113;41.882;12.530;2023-08-12T08:32:54;7.80;;;2.85;;
54947;SDS011;41113;41.882;12.530;2023-08-12T08:35:19;8.10;;;2.88;;
54947;SDS011;41113;41.882;12.530;2023-08-12T08:37:45;7.20;;;2.63;;
54947;SDS011;41113;41.882;12.530;2023-08-12T08:40:10;8.65;;;3.10;;
54947;SDS011;41113;41.882;12.530;2023-08-12T08:42:36;6.93;;;2.70;;
54947;SDS011;41113;41.882;12.530;2023-08-12T08:45:02;9.35;;;2.75;;
54947;SDS011;41113;41.882;12.530;2023-08-12T08:47:29;7.88;;;3.05;;
54947;SDS011;41113;41.882;12.530;2023-08-12T08:49:55;8.40;;;3.20;;
54947;SDS011;41113;41.882;12.530;2023-08-12T08:52:22;10.23;;;3.45;;
54947;SDS011;41113;41.882;12.530;2023-08-12T08:54:48;8.07;;;2.88;;
54947;SDS011;41113;41.882;12.530;2023-08-12T08:57:14;9.05;;;3.42;;
54947;SDS011;41113;41.882;12.530;2023-08-12T08:59:40;9.10;;;3.33;;
54947;SDS011;41113;41.882;12.530;2023-08-12T09:02:05;13.05;;;3.80;;
54947;SDS011;41113;41.882;12.530;2023-08-12T09:04:40;9.88;;;3.47;;
54947;SDS011;41113;41.882;12.530;2023-08-12T09:07:06;11.10;;;4.43;;
54947;SDS011;41113;41.882;12.530;2023-08-12T09:09:32;9.43;;;3.45;;
54947;SDS011;41113;41.882;12.530;2023-08-12T09:11:58;8.20;;;3.33;;
54947;SDS011;41113;41.882;12.530;2023-08-12T09:14:24;8.35;;;3.22;;
54947;SDS011;41113;41.882;12.530;2023-08-12T09:16:49;7.93;;;3.40;;
54947;SDS011;41113;41.882;12.530;2023-08-12T09:19:14;7.88;;;3.17;;
54947;SDS011;41113;41.882;12.530;2023-08-12T09:21:40;8.88;;;3.03;;
54947;SDS011;41113;41.882;12.530;2023-08-12T09:24:07;7.78;;;2.92;;
54947;SDS011;41113;41.882;12.530;2023-08-12T09:26:33;8.27;;;2.60;;
54947;SDS011;41113;41.882;12.530;2023-08-12T09:28:59;7.40;;;2.60;;
54947;SDS011;41113;41.882;12.530;2023-08-12T09:31:26;7.55;;;2.55;;
54947;SDS011;41113;41.882;12.530;2023-08-12T09:33:53;7.50;;;2.40;;
54947;SDS011;41113;41.882;12.530;2023-08-12T09:36:28;7.60;;;2.63;;
54947;SDS011;41113;41.882;12.530;2023-08-12T09:38:55;7.00;;;2.60;;
54947;SDS011;41113;41.882;12.530;2023-08-12T09:41:22;7.22;;;2.40;;
54947;SDS011;41113;41.882;12.530;2023-08-12T09:43:50;7.80;;;2.88;;
54947;SDS011;41113;41.882;12.530;2023-08-12T09:46:16;8.50;;;2.78;;
54947;SDS011;41113;41.882;12.530;2023-08-12T09:48:42;7.05;;;2.53;;
54947;SDS011;41113;41.882;12.530;2023-08-12T09:51:08;7.25;;;2.60;;
54947;SDS011;41113;41.882;12.530;2023-08-12T09:53:34;7.18;;;2.80;;
54947;SDS011;41113;41.882;12.530;2023-08-12T09:56:06;8.23;;;2.42;;
54947;SDS011;41113;41.882;12.530;2023-08-12T09:58:35;8.02;;;2.40;;
54947;SDS011;41113;41.882;12.530;2023-08-12T10:01:02;6.93;;;2.58;;
54947;SDS011;41113;41.882;12.530;2023-08-12T10:03:29;7.13;;;2.47;;
54947;SDS011;41113;41.882;12.530;2023-08-12T10:05:55;7.35;;;2.63;;
54947;SDS011;41113;41.882;12.530;2023-08-12T10:08:21;7.65;;;2.70;;
54947;SDS011;41113;41.882;12.530;2023-08-12T10:10:47;8.00;;;2.75;;
54947;SDS011;41113;41.882;12.530;2023-08-12T10:13:12;8.05;;;2.60;;
54947;SDS011;41113;41.882;12.530;2023-08-12T10:15:38;6.70;;;2.60;;
54947;SDS011;41113;41.882;12.530;2023-08-12T10:18:04;7.80;;;2.95;;
54947;SDS011;41113;41.882;12.530;2023-08-12T10:20:31;7.95;;;2.65;;
54947;SDS011;41113;41.882;12.530;2023-08-12T10:22:57;9.75;;;2.72;;
54947;SDS011;41113;41.882;12.530;2023-08-12T10:25:25;7.07;;;2.60;;
54947;SDS011;41113;41.882;12.530;2023-08-12T10:27:56;10.38;;;3.17;;
54947;SDS011;41113;41.882;12.530;2023-08-12T10:30:22;7.40;;;2.63;;
54947;SDS011;41113;41.882;12.530;2023-08-12T10:32:47;6.47;;;2.53;;
54947;SDS011;41113;41.882;12.530;2023-08-12T10:35:13;7.55;;;2.58;;
54947;SDS011;41113;41.882;12.530;2023-08-12T10:37:38;7.07;;;2.50;;
54947;SDS011;41113;41.882;12.530;2023-08-12T10:40:05;7.28;;;2.25;;
54947;SDS011;41113;41.882;12.530;2023-08-12T10:42:45;6.57;;;2.35;;
54947;SDS011;41113;41.882;12.530;2023-08-12T10:45:12;6.85;;;2.40;;
54947;SDS011;41113;41.882;12.530;2023-08-12T10:47:39;7.13;;;2.35;;
54947;SDS011;41113;41.882;12.530;2023-08-12T10:50:10;6.80;;;2.40;;
54947;SDS011;41113;41.882;12.530;2023-08-12T10:52:41;7.95;;;2.80;;
54947;SDS011;41113;41.882;12.530;2023-08-12T10:55:24;9.07;;;2.58;;
54947;SDS011;41113;41.882;12.530;2023-08-12T10:57:51;9.05;;;2.60;;
54947;SDS011;41113;41.882;12.530;2023-08-12T11:00:25;9.13;;;2.97;;
54947;SDS011;41113;41.882;12.530;2023-08-12T11:02:55;6.95;;;2.70;;
54947;SDS011;41113;41.882;12.530;2023-08-12T11:05:21;6.75;;;2.47;;
54947;SDS011;41113;41.882;12.530;2023-08-12T11:07:58;7.30;;;2.45;;
54947;SDS011;41113;41.882;12.530;2023-08-12T11:10:26;5.85;;;2.17;;
54947;SDS011;41113;41.882;12.530;2023-08-12T11:18:06;6.72;;;2.20;;
54947;SDS011;41113;41.882;12.530;2023-08-12T11:20:33;6.35;;;2.30;;
54947;SDS011;41113;41.882;12.530;2023-08-12T11:22:59;6.40;;;2.50;;
54947;SDS011;41113;41.882;12.530;2023-08-12T11:25:27;8.05;;;2.75;;
54947;SDS011;41113;41.882;12.530;2023-08-12T11:27:54;7.00;;;2.67;;
54947;SDS011;41113;41.882;12.530;2023-08-12T11:30:20;6.65;;;2.40;;
54947;SDS011;41113;41.882;12.530;2023-08-12T11:32:48;6.63;;;2.50;;
54947;SDS011;41113;41.882;12.530;2023-08-12T11:35:15;7.30;;;2.70;;
54947;SDS011;41113;41.882;12.530;2023-08-12T11:37:42;8.88;;;2.95;;
54947;SDS011;41113;41.882;12.530;2023-08-12T11:40:09;7.38;;;2.70;;
54947;SDS011;41113;41.882;12.530;2023-08-12T11:42:37;7.32;;;2.70;;
54947;SDS011;41113;41.882;12.530;2023-08-12T11:45:04;6.47;;;2.42;;
54947;SDS011;41113;41.882;12.530;2023-08-12T11:47:30;8.13;;;2.60;;
54947;SDS011;41113;41.882;12.530;2023-08-12T11:49:55;7.07;;;2.50;;
54947;SDS011;41113;41.882;12.530;2023-08-12T11:52:20;7.38;;;2.28;;
54947;SDS011;41113;41.882;12.530;2023-08-12T11:54:47;8.32;;;2.53;;
54947;SDS011;41113;41.882;12.530;2023-08-12T11:57:14;7.63;;;3.03;;
54947;SDS011;41113;41.882;12.530;2023-08-12T11:59:39;11.32;;;2.88;;
54947;SDS011;41113;41.882;12.530;2023-08-12T12:02:05;6.28;;;2.38;;
54947;SDS011;41113;41.882;12.530;2023-08-12T12:04:31;6.72;;;2.60;;
54947;SDS011;41113;41.882;12.530;2023-08-12T12:06:57;8.00;;;2.83;;
54947;SDS011;41113;41.882;12.530;2023-08-12T12:09:22;8.15;;;2.92;;
54947;SDS011;41113;41.882;12.530;2023-08-12T12:11:51;7.53;;;2.58;;
54947;SDS011;41113;41.882;12.530;2023-08-12T12:14:18;8.05;;;2.90;;
54947;SDS011;41113;41.882;12.530;2023-08-12T12:16:47;10.43;;;3.55;;
54947;SDS011;41113;41.882;12.530;2023-08-12T12:19:14;10.48;;;3.30;;
54947;SDS011;41113;41.882;12.530;2023-08-12T12:21:42;7.95;;;2.78;;
54947;SDS011;41113;41.882;12.530;2023-08-12T12:24:10;7.75;;;2.95;;
54947;SDS011;41113;41.882;12.530;2023-08-12T12:26:35;8.00;;;2.85;;
54947;SDS011;41113;41.882;12.530;2023-08-12T12:29:05;9.45;;;2.70;;
54947;SDS011;41113;41.882;12.530;2023-08-12T12:34:00;7.03;;;2.70;;
54947;SDS011;41113;41.882;12.530;2023-08-12T12:36:29;6.50;;;2.55;;
54947;SDS011;41113;41.882;12.530;2023-08-12T12:38:59;6.78;;;2.35;;
54947;SDS011;41113;41.882;12.530;2023-08-12T12:41:24;9.00;;;2.80;;
54947;SDS011;41113;41.882;12.530;2023-08-12T12:43:49;7.03;;;2.80;;
54947;SDS011;41113;41.882;12.530;2023-08-12T12:46:15;7.43;;;2.60;;
54947;SDS011;41113;41.882;12.530;2023-08-12T12:48:41;6.63;;;2.50;;
54947;SDS011;41113;41.882;12.530;2023-08-12T12:51:07;6.55;;;2.30;;
54947;SDS011;41113;41.882;12.530;2023-08-12T12:53:33;6.32;;;2.22;;
54947;SDS011;41113;41.882;12.530;2023-08-12T12:55:58;6.60;;;2.20;;
54947;SDS011;41113;41.882;12.530;2023-08-12T12:58:28;7.00;;;2.60;;
54947;SDS011;41113;41.882;12.530;2023-08-12T13:00:58;8.48;;;2.78;;
54947;SDS011;41113;41.882;12.530;2023-08-12T13:03:23;8.02;;;3.05;;
54947;SDS011;41113;41.882;12.530;2023-08-12T13:05:49;7.35;;;2.30;;
54947;SDS011;41113;41.882;12.530;2023-08-12T13:08:15;6.13;;;2.22;;
54947;SDS011;41113;41.882;12.530;2023-08-12T13:10:40;7.00;;;2.50;;
54947;SDS011;41113;41.882;12.530;2023-08-12T13:13:05;5.85;;;2.13;;
54947;SDS011;41113;41.882;12.530;2023-08-12T13:15:31;6.82;;;2.67;;
54947;SDS011;41113;41.882;12.530;2023-08-12T13:17:56;7.18;;;2.42;;
54947;SDS011;41113;41.882;12.530;2023-08-12T13:20:22;7.68;;;2.38;;
54947;SDS011;41113;41.882;12.530;2023-08-12T13:22:47;7.25;;;2.30;;
54947;SDS011;41113;41.882;12.530;2023-08-12T13:25:13;7.90;;;2.88;;
54947;SDS011;41113;41.882;12.530;2023-08-12T13:27:38;7.63;;;2.63;;
54947;SDS011;41113;41.882;12.530;2023-08-12T13:30:04;6.93;;;2.60;;
54947;SDS011;41113;41.882;12.530;2023-08-12T13:32:30;8.93;;;2.65;;
54947;SDS011;41113;41.882;12.530;2023-08-12T13:34:55;7.13;;;2.80;;
54947;SDS011;41113;41.882;12.530;2023-08-12T13:37:20;8.85;;;2.75;;
54947;SDS011;41113;41.882;12.530;2023-08-12T13:39:46;7.80;;;2.97;;
54947;SDS011;41113;41.882;12.530;2023-08-12T13:42:11;7.32;;;2.75;;
54947;SDS011;41113;41.882;12.530;2023-08-12T13:44:36;7.80;;;2.85;;
54947;SDS011;41113;41.882;12.530;2023-08-12T13:47:02;7.97;;;2.63;;
54947;SDS011;41113;41.882;12.530;2023-08-12T13:49:27;8.30;;;2.75;;
54947;SDS011;41113;41.882;12.530;2023-08-12T13:51:53;8.15;;;2.53;;
54947;SDS011;41113;41.882;12.530;2023-08-12T13:54:19;7.35;;;2.60;;
54947;SDS011;41113;41.882;12.530;2023-08-12T13:56:44;8.05;;;2.45;;
54947;SDS011;41113;41.882;12.530;2023-08-12T13:59:09;7.97;;;2.60;;
54947;SDS011;41113;41.882;12.530;2023-08-12T14:01:35;7.70;;;2.63;;
54947;SDS011;41113;41.882;12.530;2023-08-12T14:04:00;5.78;;;2.20;;
54947;SDS011;41113;41.882;12.530;2023-08-12T14:06:25;6.63;;;2.30;;
54947;SDS011;41113;41.882;12.530;2023-08-12T14:08:51;9.43;;;2.70;;
54947;SDS011;41113;41.882;12.530;2023-08-12T14:11:16;7.22;;;2.55;;
54947;SDS011;41113;41.882;12.530;2023-08-12T14:13:41;7.18;;;2.35;;
54947;SDS011;41113;41.882;12.530;2023-08-12T14:16:07;6.07;;;2.40;;
54947;SDS011;41113;41.882;12.530;2023-08-12T14:18:32;6.43;;;2.33;;
54947;SDS011;41113;41.882;12.530;2023-08-12T14:20:57;6.10;;;2.20;;
54947;SDS011;41113;41.882;12.530;2023-08-12T14:23:23;6.57;;;2.10;;
54947;SDS011;41113;41.882;12.530;2023-08-12T14:25:48;7.82;;;2.65;;
54947;SDS011;41113;41.882;12.530;2023-08-12T14:28:13;8.38;;;2.80;;
54947;SDS011;41113;41.882;12.530;2023-08-12T14:30:39;8.60;;;2.85;;
54947;SDS011;41113;41.882;12.530;2023-08-12T14:33:04;9.55;;;2.88;;